Wilmington, OH

11:22 PM EDT on July 22, 2017 (GMT -0400)
Settlers Walk | | Change Station

Elev 896 ft 39.57 °N, 84.22 °W | Updated 16 seconds ago

Overcast
Overcast
79.7 °F
Feels Like 83 °F
N
0.0
Wind Variable Wind from SW
Gusts 0.0 mph

Today
High -- | Low -- °F
--% Chance of Precip.
Yesterday
High -- | Low -- °F
Precip. -- in
Pressure 29.84 in
Visibility 10.0 miles
Clouds Mostly Cloudy 5500 ft
Overcast 6500 ft
Heat Index 83 °F
Dew Point 70.7 °F
Humidity 74%
Rainfall 0.00 in
Snow Depth Not available.
6:26 AM 8:56 PM
Waning Crescent, 0% visible
SPECI KILN 230319Z AUTO 31003KT 10SM BKN055 OVC065 27/22 A2984 RMK AO2 LTG DSNT E T02670222
Pressure 29.84 in
Visibility 10.0 miles
Clouds Mostly Cloudy 5500 ft
Overcast 6500 ft
Heat Index 83 °F
Dew Point 70.7 °F
Humidity 74%
Rainfall 0.00 in
Snow Depth Not available.
6:26 AM 8:56 PM
Waning Crescent, 0% visible
SPECI KILN 230319Z AUTO 31003KT 10SM BKN055 OVC065 27/22 A2984 RMK AO2 LTG DSNT E T02670222

Get Severe Weather Alerts

Thanks for signing up!

Be on the lookout for a verification email in your inbox.

You'll start receiving the daily forecast at 6 AM.

×

10-Day Weather Forecast

Almanac

Astronomy

Jul. 22, 2017 Rise Set
Actual Time
Civil Twilight
Nautical Twilight
Astronomical Twilight
Moon
Length of Visible Light
Length of Day
Tomorrow will be .
, % of the Moon is Illuminated

Today's Extremes

State Highs State Lows

Community

WunderPhotos

Category 6

Welcome to Category 6. This is the collective home for Weather Underground's featured writeups by Dr. Jeff Masters (right), Bob Henson (left), Chris Burt, and other regular contributors.

Nearby

Air Quality

  Air Quality AQ Index Pollutant
Not available.

Snow Depth

Station Depth Elevation

Earthquake Activity

City Distance Mag. Time & Date
Minimum magnitude displayed is 2.5.

Coastal Water Temperatures

Place Temperature

Stations

Nearby Weather Stations

Station Location Temp. Windchill Dew Point Humidity Wind Precip. Elev Updated Type
                   

Watches & Warnings

There are currently no watches in effect.